createdAt,value
2022-10-18T00:02:10.315Z,16.17
2022-10-18T00:05:17.866Z,18.10
2022-10-18T00:08:22.389Z,19.63
2022-10-18T00:11:27.017Z,17.33
2022-10-18T00:14:32.867Z,18.98
2022-10-18T00:17:40.667Z,19.45
2022-10-18T00:20:51.550Z,19.33
2022-10-18T00:23:56.481Z,19.00
2022-10-18T00:27:11.456Z,22.27
2022-10-18T00:30:26.870Z,27.10
2022-10-18T00:36:52.368Z,35.17
2022-10-18T00:43:22.645Z,38.20
2022-10-18T00:46:34.113Z,35.60
2022-10-18T00:49:48.469Z,33.97
2022-10-18T00:59:45.358Z,30.50
2022-10-18T01:02:52.546Z,27.45
2022-10-18T01:05:57.384Z,25.67
2022-10-18T01:09:31.096Z,23.25
2022-10-18T01:13:15.254Z,21.58
2022-10-18T01:16:43.283Z,23.77
2022-10-18T01:23:12.769Z,25.50
2022-10-18T01:33:39.977Z,33.88
2022-10-18T01:36:54.934Z,31.17
2022-10-18T01:40:05.814Z,29.98
2022-10-18T01:43:13.949Z,28.13
2022-10-18T01:46:24.076Z,32.60
2022-10-18T01:49:29.252Z,29.95
2022-10-18T01:52:35.491Z,31.58
2022-10-18T01:55:50.499Z,30.25
2022-10-18T01:59:10.548Z,27.55
2022-10-18T02:06:42.479Z,29.98
2022-10-18T02:09:56.950Z,26.95
2022-10-18T02:13:04.004Z,24.98
2022-10-18T02:16:20.049Z,26.67
2022-10-18T02:19:41.566Z,23.70
2022-10-18T02:22:46.775Z,24.77
2022-10-18T02:25:51.152Z,19.73
2022-10-18T02:28:55.347Z,19.38
2022-10-18T02:32:10.214Z,16.75
2022-10-18T02:35:21.098Z,20.17
2022-10-18T02:38:26.806Z,17.23
2022-10-18T02:41:31.925Z,18.27
2022-10-18T02:44:36.256Z,14.30
2022-10-18T02:47:40.093Z,12.55
2022-10-18T02:50:43.813Z,14.63
2022-10-18T02:53:47.447Z,13.68
2022-10-18T02:56:51.755Z,16.73
2022-10-18T02:59:55.454Z,14.05
2022-10-18T03:02:59.005Z,15.93
2022-10-18T03:06:02.746Z,15.73
2022-10-18T03:09:07.507Z,14.60
2022-10-18T03:12:10.961Z,15.07
2022-10-18T03:15:15.227Z,13.10
2022-10-18T03:18:19.064Z,13.57
2022-10-18T03:21:23.546Z,15.52
2022-10-18T03:24:27.238Z,13.02
2022-10-18T03:27:30.811Z,13.50
2022-10-18T03:30:34.781Z,12.45
2022-10-18T03:33:38.873Z,15.90
2022-10-18T03:36:42.322Z,16.27
2022-10-18T03:39:47.089Z,15.60
2022-10-18T03:42:50.659Z,16.33
2022-10-18T03:45:54.614Z,15.77
2022-10-18T03:48:58.864Z,15.07
2022-10-18T03:52:04.493Z,14.20
2022-10-18T03:55:08.394Z,15.00
2022-10-18T03:58:12.633Z,16.77
2022-10-18T04:01:16.379Z,16.00
2022-10-18T04:04:20.538Z,15.65
2022-10-18T04:07:23.545Z,17.00
2022-10-18T04:10:28.232Z,16.85
2022-10-18T04:13:32.651Z,19.02
2022-10-18T04:19:45.778Z,17.55
2022-10-18T04:22:50.895Z,17.42
2022-10-18T04:25:54.866Z,17.55
2022-10-18T04:28:59.164Z,17.42
2022-10-18T04:32:03.493Z,18.50
2022-10-18T04:35:08.800Z,18.20
2022-10-18T04:38:12.511Z,18.55
2022-10-18T04:41:16.984Z,18.15
2022-10-18T04:44:20.827Z,18.92
2022-10-18T04:47:25.329Z,18.40
2022-10-18T04:50:29.634Z,18.20
2022-10-18T04:53:34.369Z,19.77
2022-10-18T04:56:39.188Z,16.85
2022-10-18T04:59:42.669Z,21.83
2022-10-18T05:02:46.886Z,17.33
2022-10-18T05:06:01.268Z,19.08
2022-10-18T05:09:06.898Z,18.60
2022-10-18T05:12:11.672Z,18.20
2022-10-18T05:15:16.021Z,18.55
2022-10-18T05:18:20.429Z,18.40
2022-10-18T05:21:25.413Z,19.42
2022-10-18T05:24:29.775Z,18.52
2022-10-18T05:27:33.867Z,18.52
2022-10-18T05:30:42.248Z,19.08
2022-10-18T05:33:46.323Z,19.08
2022-10-18T05:36:52.896Z,18.98
2022-10-18T05:39:56.246Z,20.55
2022-10-18T05:43:00.705Z,20.10
2022-10-18T05:46:07.191Z,20.90
2022-10-18T05:49:14.478Z,21.08
2022-10-18T05:52:18.726Z,22.17
2022-10-18T05:55:23.175Z,22.38
2022-10-18T05:58:27.232Z,21.80
2022-10-18T06:01:30.960Z,20.83
2022-10-18T06:04:35.636Z,21.80
2022-10-18T06:07:39.446Z,22.00
2022-10-18T06:10:42.863Z,21.52
2022-10-18T06:13:52.013Z,20.52
2022-10-18T06:16:57.667Z,19.77
2022-10-18T06:20:01.585Z,20.83
2022-10-18T06:23:05.379Z,21.02
2022-10-18T06:26:11.164Z,21.20
2022-10-18T06:29:15.162Z,22.05
2022-10-18T06:32:19.214Z,20.15
2022-10-18T06:35:22.194Z,21.67
2022-10-18T06:38:25.630Z,21.65
2022-10-18T06:41:29.057Z,20.65
2022-10-18T06:44:38.783Z,21.25
2022-10-18T06:47:41.865Z,23.25
2022-10-18T06:50:53.507Z,23.60
2022-10-18T06:54:16.976Z,22.65
2022-10-18T06:57:22.587Z,23.15
2022-10-18T07:00:25.917Z,24.45
2022-10-18T07:03:30.193Z,24.55
2022-10-18T07:06:34.437Z,28.52
2022-10-18T07:09:38.751Z,25.08
2022-10-18T07:12:42.645Z,23.17
2022-10-18T07:15:46.385Z,25.80
2022-10-18T07:18:52.354Z,26.67
2022-10-18T07:21:55.858Z,26.63
2022-10-18T07:24:59.305Z,28.63
2022-10-18T07:28:03.980Z,25.63
2022-10-18T07:31:09.414Z,25.92
2022-10-18T07:34:16.541Z,24.75
2022-10-18T07:37:20.317Z,24.75
2022-10-18T07:40:24.255Z,26.10
2022-10-18T07:43:29.151Z,26.23
2022-10-18T07:46:34.016Z,24.65
2022-10-18T07:49:38.432Z,26.80
2022-10-18T07:52:42.769Z,26.42
2022-10-18T07:55:46.055Z,24.98
2022-10-18T07:58:55.161Z,25.55
2022-10-18T08:01:58.683Z,24.58
2022-10-18T08:05:03.453Z,26.30
2022-10-18T08:08:08.176Z,23.65
2022-10-18T08:11:22.334Z,25.35
2022-10-18T08:14:26.620Z,23.88
2022-10-18T08:17:31.590Z,22.63
2022-10-18T08:20:37.559Z,24.08
2022-10-18T08:23:42.360Z,22.58
2022-10-18T08:26:46.830Z,23.67
2022-10-18T08:29:50.355Z,24.15
2022-10-18T08:32:54.458Z,23.10
2022-10-18T08:36:02.401Z,23.80
2022-10-18T08:39:07.426Z,22.67
2022-10-18T08:42:29.806Z,25.20
2022-10-18T08:45:42.522Z,22.95
2022-10-18T08:48:52.374Z,21.77
2022-10-18T08:51:57.233Z,21.02
2022-10-18T08:55:12.325Z,23.00
2022-10-18T08:58:27.494Z,21.77
2022-10-18T09:02:02.911Z,22.83
2022-10-18T09:05:30.349Z,22.38
2022-10-18T09:09:04.388Z,22.35
2022-10-18T09:12:43.504Z,20.48
2022-10-18T09:15:50.891Z,18.70
2022-10-18T09:19:14.724Z,18.77
2022-10-18T09:22:20.414Z,18.83
2022-10-18T09:25:38.091Z,23.17
2022-10-18T09:28:44.806Z,29.67
2022-10-18T09:32:27.705Z,25.73
2022-10-18T09:36:01.781Z,27.08
2022-10-18T09:39:15.417Z,27.40
2022-10-18T09:42:29.671Z,26.77
2022-10-18T09:45:35.366Z,25.00
2022-10-18T09:48:51.337Z,23.75
2022-10-18T09:51:55.178Z,21.83
2022-10-18T09:55:06.910Z,21.13
2022-10-18T09:58:14.310Z,20.15
2022-10-18T10:01:21.940Z,18.85
2022-10-18T10:04:25.558Z,19.52
2022-10-18T10:07:35.336Z,20.58
2022-10-18T10:10:47.895Z,23.05
2022-10-18T10:13:51.142Z,22.73
2022-10-18T10:17:06.304Z,19.45
2022-10-18T10:20:23.443Z,21.40
2022-10-18T10:23:40.275Z,18.60
2022-10-18T10:26:44.365Z,16.08
2022-10-18T10:29:49.313Z,17.35
2022-10-18T10:32:54.727Z,17.20
2022-10-18T10:36:03.555Z,16.75
2022-10-18T10:39:20.016Z,15.88
2022-10-18T10:42:23.509Z,15.30
2022-10-18T10:45:32.398Z,13.10
2022-10-18T10:48:48.770Z,13.50
2022-10-18T10:52:08.488Z,12.20
2022-10-18T10:55:34.957Z,12.30
2022-10-18T10:58:43.443Z,12.48
2022-10-18T11:01:51.607Z,12.38
2022-10-18T11:04:58.172Z,11.68
2022-10-18T11:08:06.677Z,12.02
2022-10-18T11:11:28.248Z,14.70
2022-10-18T11:14:40.775Z,16.38
2022-10-18T11:17:58.995Z,21.02
2022-10-18T11:21:26.854Z,20.02
2022-10-18T11:24:34.666Z,21.67
2022-10-18T11:27:57.205Z,17.30
2022-10-18T11:31:18.447Z,23.98
2022-10-18T11:34:38.189Z,19.85
2022-10-18T11:38:16.988Z,17.92
2022-10-18T11:41:31.916Z,28.75
2022-10-18T11:44:37.499Z,23.80
2022-10-18T11:47:42.221Z,29.67
2022-10-18T11:50:57.714Z,22.60
2022-10-18T11:54:23.720Z,18.95
2022-10-18T11:58:02.503Z,26.40
2022-10-18T12:04:30.412Z,32.22
2022-10-18T12:07:45.910Z,27.63
2022-10-18T12:11:05.463Z,28.15
2022-10-18T12:14:35.047Z,35.90
2022-10-18T12:17:50.485Z,38.80
2022-10-18T12:21:01.152Z,37.50
2022-10-18T12:24:21.472Z,34.33
2022-10-18T12:27:53.409Z,36.42
2022-10-18T12:31:26.998Z,44.85
2022-10-18T12:34:50.043Z,52.70
2022-10-18T12:38:20.609Z,46.38
2022-10-18T12:41:36.383Z,40.95
2022-10-18T12:44:50.488Z,47.20
2022-10-18T12:48:01.279Z,43.38
2022-10-18T12:51:21.609Z,38.05
2022-10-18T12:54:37.732Z,35.40
2022-10-18T12:57:56.820Z,48.63
2022-10-18T13:01:06.843Z,39.80
2022-10-18T13:04:33.754Z,54.38
2022-10-18T13:10:47.483Z,75.07
2022-10-18T13:14:28.551Z,59.83
2022-10-18T13:17:45.618Z,68.05
2022-10-18T13:21:11.726Z,72.72
2022-10-18T13:24:37.611Z,73.88
2022-10-18T13:28:05.939Z,74.68
2022-10-18T13:31:43.562Z,62.85
2022-10-18T13:34:46.946Z,53.08
2022-10-18T13:38:00.873Z,55.58
2022-10-18T13:41:16.497Z,49.38
2022-10-18T13:44:38.269Z,61.20
2022-10-18T13:47:41.888Z,53.72
2022-10-18T13:50:46.656Z,53.50
2022-10-18T13:54:15.354Z,52.10
2022-10-18T13:57:36.829Z,49.85
2022-10-18T14:01:14.101Z,49.08
2022-10-18T14:04:44.236Z,48.13
2022-10-18T14:08:04.675Z,45.90
2022-10-18T14:11:40.327Z,45.92
2022-10-18T14:14:59.027Z,46.33
2022-10-18T14:18:16.468Z,36.55
2022-10-18T14:21:32.644Z,37.10
2022-10-18T14:24:44.768Z,36.05
2022-10-18T14:27:53.625Z,33.00
2022-10-18T14:31:02.713Z,32.72
2022-10-18T14:34:12.001Z,33.78
2022-10-18T14:37:28.233Z,30.17
2022-10-18T14:40:42.312Z,30.52
2022-10-18T14:43:48.744Z,31.02
2022-10-18T14:47:01.000Z,34.50
2022-10-18T14:50:05.332Z,29.58
2022-10-18T14:53:19.030Z,25.15
2022-10-18T14:56:29.576Z,30.35
2022-10-18T14:59:40.840Z,34.47
2022-10-18T15:02:44.428Z,38.38
2022-10-18T15:06:00.870Z,40.20
2022-10-18T15:09:07.432Z,40.78
2022-10-18T15:12:16.054Z,24.30
2022-10-18T15:15:22.811Z,25.52
2022-10-18T15:21:33.657Z,19.27
2022-10-18T15:24:53.713Z,21.25
2022-10-18T15:27:59.466Z,24.33
2022-10-18T15:31:02.905Z,24.42
2022-10-18T15:34:16.850Z,29.73
2022-10-18T15:37:36.647Z,27.90
2022-10-18T15:40:41.076Z,24.27
2022-10-18T15:43:44.602Z,22.48
2022-10-18T15:47:11.806Z,25.55
2022-10-18T15:50:39.168Z,24.45
2022-10-18T15:53:54.354Z,15.95
2022-10-18T15:57:02.037Z,20.92
2022-10-18T16:00:19.877Z,19.73
2022-10-18T16:03:26.763Z,16.08
2022-10-18T16:06:37.120Z,20.33
2022-10-18T16:09:45.141Z,16.95
2022-10-18T16:16:01.455Z,20.67
2022-10-18T16:19:10.545Z,22.23
2022-10-18T16:22:19.316Z,23.15
2022-10-18T16:25:26.001Z,24.98
2022-10-18T16:28:34.059Z,27.85
2022-10-18T16:31:43.031Z,26.95
2022-10-18T16:34:49.701Z,24.90
2022-10-18T16:37:56.897Z,16.13
2022-10-18T16:41:04.193Z,13.23
2022-10-18T16:44:12.192Z,16.38
2022-10-18T16:47:20.724Z,10.35
2022-10-18T16:50:29.063Z,10.68
2022-10-18T16:53:38.777Z,10.48
2022-10-18T16:56:46.381Z,8.98
2022-10-18T16:59:54.893Z,10.25
2022-10-18T17:03:04.537Z,10.68
2022-10-18T17:06:19.203Z,12.02
2022-10-18T17:09:29.357Z,12.60
2022-10-18T17:12:38.299Z,12.18
2022-10-18T17:15:46.923Z,12.10
2022-10-18T17:18:55.535Z,12.68
2022-10-18T17:22:04.465Z,12.63
2022-10-18T17:25:12.984Z,11.75
2022-10-18T17:28:22.328Z,10.82
2022-10-18T17:31:31.157Z,11.40
2022-10-18T17:37:50.541Z,9.50
2022-10-18T17:40:59.268Z,9.70
2022-10-18T17:44:07.584Z,7.20
2022-10-18T17:47:16.727Z,8.40
2022-10-18T17:50:25.963Z,7.60
2022-10-18T17:53:37.424Z,6.28
2022-10-18T17:56:44.030Z,8.80
2022-10-18T17:59:53.051Z,7.85
2022-10-18T18:03:01.527Z,8.93
2022-10-18T18:06:26.988Z,6.35
2022-10-18T18:09:39.304Z,7.40
2022-10-18T18:12:48.734Z,8.05
2022-10-18T18:15:57.976Z,7.45
2022-10-18T18:19:09.804Z,7.18
2022-10-18T18:22:16.659Z,7.22
2022-10-18T18:25:25.172Z,6.68
2022-10-18T18:28:34.808Z,5.15
2022-10-18T18:31:43.797Z,6.35
2022-10-18T18:34:52.781Z,5.80
2022-10-18T18:41:20.673Z,6.00
2022-10-18T18:44:30.216Z,6.00
2022-10-18T18:47:39.057Z,6.45
2022-10-18T18:50:53.196Z,5.38
2022-10-18T18:54:01.491Z,4.28
2022-10-18T18:57:10.750Z,5.47
2022-10-18T19:00:18.554Z,5.32
2022-10-18T19:03:29.734Z,5.22
2022-10-18T19:06:48.079Z,5.95
2022-10-18T19:09:56.294Z,5.80
2022-10-18T19:13:04.712Z,4.55
2022-10-18T19:16:26.041Z,5.68
2022-10-18T19:19:33.420Z,5.93
2022-10-18T19:22:42.045Z,6.60
2022-10-18T19:25:49.649Z,6.78
2022-10-18T19:28:56.883Z,4.90
2022-10-18T19:32:07.815Z,4.63
2022-10-18T19:35:16.639Z,5.65
2022-10-18T19:38:25.569Z,6.03
2022-10-18T19:41:35.524Z,6.07
2022-10-18T19:44:44.357Z,5.20
2022-10-18T19:47:53.278Z,4.95
2022-10-18T19:51:07.933Z,5.18
2022-10-18T19:54:19.639Z,4.90
2022-10-18T19:57:28.665Z,4.32
2022-10-18T20:00:37.913Z,4.70
2022-10-18T20:03:46.831Z,5.10
2022-10-18T20:06:54.954Z,4.93
2022-10-18T20:10:01.427Z,6.70
2022-10-18T20:13:08.415Z,4.15
2022-10-18T20:16:17.335Z,4.70
2022-10-18T20:19:25.646Z,4.57
2022-10-18T20:22:36.093Z,4.75
2022-10-18T20:25:44.628Z,4.93
2022-10-18T20:28:58.762Z,5.05
2022-10-18T20:32:08.328Z,5.03
2022-10-18T20:35:16.334Z,5.15
2022-10-18T20:38:26.081Z,4.78
2022-10-18T20:41:42.996Z,5.15
2022-10-18T20:44:50.493Z,4.68
2022-10-18T20:47:58.296Z,4.32
2022-10-18T20:51:15.624Z,4.53
2022-10-18T20:54:23.121Z,4.80
2022-10-18T20:57:36.530Z,4.93
2022-10-18T21:00:45.282Z,3.92
2022-10-18T21:03:54.926Z,5.25
2022-10-18T21:07:02.625Z,5.28
2022-10-18T21:10:13.499Z,5.30
2022-10-18T21:13:22.023Z,6.03
2022-10-18T21:16:31.460Z,5.50
2022-10-18T21:19:40.493Z,6.63
2022-10-18T21:22:49.834Z,6.10
2022-10-18T21:25:59.290Z,5.55
2022-10-18T21:29:09.075Z,6.25
2022-10-18T21:32:17.956Z,5.57
2022-10-18T21:35:27.091Z,5.97
2022-10-18T21:38:35.708Z,5.68
2022-10-18T21:41:44.846Z,6.68
2022-10-18T21:44:53.975Z,5.50
2022-10-18T21:48:02.092Z,6.25
2022-10-18T21:51:10.209Z,7.32
2022-10-18T21:54:20.972Z,8.40
2022-10-18T21:57:30.366Z,8.57
2022-10-18T22:00:38.961Z,8.73
2022-10-18T22:03:47.553Z,11.13
2022-10-18T22:10:04.083Z,10.13
2022-10-18T22:13:13.020Z,5.78
2022-10-18T22:16:22.142Z,6.40
2022-10-18T22:19:30.879Z,6.65
2022-10-18T22:22:36.127Z,8.20
2022-10-18T22:25:40.152Z,7.20
2022-10-18T22:28:46.056Z,7.78
2022-10-18T22:31:51.985Z,8.68
2022-10-18T22:34:56.109Z,7.53
2022-10-18T22:37:59.985Z,7.45
2022-10-18T22:41:08.293Z,8.43
2022-10-18T22:44:15.869Z,8.27
2022-10-18T22:47:19.785Z,7.95
2022-10-18T22:50:23.447Z,7.82
2022-10-18T22:53:27.745Z,6.50
2022-10-18T22:56:30.742Z,6.35
2022-10-18T22:59:34.757Z,7.75
2022-10-18T23:02:38.439Z,6.93
2022-10-18T23:05:44.449Z,8.07
2022-10-18T23:08:47.946Z,6.35
2022-10-18T23:11:53.802Z,7.82
2022-10-18T23:14:57.646Z,7.25
2022-10-18T23:18:02.897Z,6.85
2022-10-18T23:21:09.763Z,6.05
2022-10-18T23:24:14.755Z,5.53
2022-10-18T23:27:19.555Z,6.25
2022-10-18T23:30:25.421Z,6.38
2022-10-18T23:33:30.515Z,7.78
2022-10-18T23:36:35.731Z,8.32
2022-10-18T23:39:40.936Z,6.80
2022-10-18T23:42:46.230Z,7.38
2022-10-18T23:45:50.130Z,7.35
2022-10-18T23:48:55.958Z,8.43
2022-10-18T23:52:00.270Z,9.75
2022-10-18T23:55:08.385Z,10.23
2022-10-18T23:58:14.649Z,6.68
